Time;durP1;ratioP1;P1;durP2;ratioP2;P2;SDS_P1;SDS_P2;PMS_P1;PMS_P2;Temp;Humidity;BMP_temperature;BMP_pressure;BME280_temperature;BME280_humidity;BME280_pressure;Samples;Min_cycle;Max_cycle;Signal;HPM_P1;HPM_P2
2024/01/22 00:01:06;;;;;;;2.80;2.50;;;;;;;12.19;47.80;99546.67;105336;1256;72433;-41
2024/01/22 00:03:33;;;;;;;4.70;2.90;;;;;;;12.19;47.72;99549.52;105425;1258;62458;-40
2024/01/22 00:06:00;;;;;;;4.60;3.00;;;;;;;12.19;47.74;99549.85;105359;1256;62098;-40
2024/01/22 00:08:27;;;;;;;3.40;2.90;;;;;;;12.18;47.86;99556.55;105386;1256;75175;-39
2024/01/22 00:10:53;;;;;;;3.60;2.90;;;;;;;12.18;47.83;99559.24;105438;1259;66001;-41
2024/01/22 00:13:20;;;;;;;3.30;3.00;;;;;;;12.18;47.85;99556.55;105501;1255;72579;-40
2024/01/22 00:15:46;;;;;;;3.80;2.90;;;;;;;12.18;47.87;99552.84;105390;1258;62137;-40
2024/01/22 00:18:13;;;;;;;3.20;2.90;;;;;;;12.18;47.69;99556.40;105610;1256;62094;-40
2024/01/22 00:20:40;;;;;;;3.50;2.90;;;;;;;12.18;47.86;99562.68;105642;1256;75250;-40
2024/01/22 00:23:07;;;;;;;4.10;2.90;;;;;;;12.18;47.81;99559.52;105690;1258;65960;-41
2024/01/22 00:25:33;;;;;;;4.50;2.90;;;;;;;12.18;47.84;99552.63;105475;1256;72489;-41
2024/01/22 00:28:00;;;;;;;3.40;2.90;;;;;;;12.18;47.87;99542.10;105637;1258;62048;-40
2024/01/22 00:30:27;;;;;;;3.50;2.70;;;;;;;12.18;47.86;99538.02;105565;1256;62103;-40
2024/01/22 00:32:53;;;;;;;3.30;2.90;;;;;;;12.18;47.86;99532.44;105540;1254;75403;-38
2024/01/22 00:35:20;;;;;;;3.10;2.80;;;;;;;12.18;47.89;99524.59;105477;1258;66259;-40
2024/01/22 00:37:47;;;;;;;4.40;3.30;;;;;;;12.18;47.84;99520.14;105573;1256;71913;-40
2024/01/22 00:40:14;;;;;;;3.10;2.80;;;;;;;12.17;47.85;99514.50;105357;1258;62082;-39
2024/01/22 00:42:42;;;;;;;5.60;3.40;;;;;;;12.18;47.82;99511.60;105383;1256;62056;-40
2024/01/22 00:45:09;;;;;;;3.50;3.10;;;;;;;12.17;47.84;99504.66;105346;1259;75423;-40
2024/01/22 00:47:36;;;;;;;3.30;2.80;;;;;;;12.18;47.81;99501.70;105514;1258;64843;-39
2024/01/22 00:50:04;;;;;;;3.30;3.00;;;;;;;12.18;47.95;99500.15;105535;1256;72577;-39
2024/01/22 00:52:31;;;;;;;3.50;3.00;;;;;;;12.17;47.85;99500.20;105477;1258;62073;-40
2024/01/22 00:54:58;;;;;;;4.00;3.40;;;;;;;12.17;47.97;99501.23;105449;1256;62137;-40
2024/01/22 00:57:24;;;;;;;4.40;3.20;;;;;;;12.17;47.95;99498.45;105644;1258;75160;-40
2024/01/22 00:59:51;;;;;;;3.90;3.40;;;;;;;12.17;47.78;99496.23;105653;1255;67141;-40
2024/01/22 01:02:18;;;;;;;3.60;2.90;;;;;;;12.17;47.93;99491.77;105646;1258;72504;-40
2024/01/22 01:04:44;;;;;;;3.80;3.00;;;;;;;12.17;47.87;99491.23;105511;1258;62246;-40
2024/01/22 01:07:12;;;;;;;3.70;3.30;;;;;;;12.17;47.84;99494.62;105402;1258;62053;-40
2024/01/22 01:09:39;;;;;;;3.50;2.80;;;;;;;12.17;47.94;99492.37;105643;1256;75211;-40
2024/01/22 01:12:06;;;;;;;3.60;3.00;;;;;;;12.16;47.80;99489.57;105382;1258;66124;-41
2024/01/22 01:14:33;;;;;;;3.10;2.80;;;;;;;12.17;47.91;99494.78;105260;1260;72667;-41
2024/01/22 01:17:00;;;;;;;5.50;3.30;;;;;;;12.17;47.80;99500.11;105583;1258;61965;-40
2024/01/22 01:19:26;;;;;;;3.40;3.10;;;;;;;12.17;47.85;99502.58;105519;1256;169924;-39
2024/01/22 01:21:53;;;;;;;3.70;3.30;;;;;;;12.17;47.92;99506.75;105568;1259;74451;-40
2024/01/22 01:24:20;;;;;;;3.30;3.00;;;;;;;12.17;47.94;99513.15;105547;1258;65817;-41
2024/01/22 01:26:47;;;;;;;3.50;2.90;;;;;;;12.16;47.92;99515.19;105318;1259;72620;-41
2024/01/22 01:29:14;;;;;;;3.70;3.10;;;;;;;12.16;47.90;99513.73;105490;1259;62526;-40
2024/01/22 01:31:40;;;;;;;3.90;2.90;;;;;;;12.17;47.81;99517.48;106190;1256;62161;-40
2024/01/22 01:34:07;;;;;;;6.00;3.40;;;;;;;12.16;47.97;99514.33;105649;1259;75371;-40
2024/01/22 01:36:34;;;;;;;4.50;3.10;;;;;;;12.17;47.88;99520.46;105525;1258;65975;-40
2024/01/22 01:39:01;;;;;;;3.20;2.90;;;;;;;12.17;47.86;99527.48;105542;1254;72467;-41
2024/01/22 01:41:27;;;;;;;3.20;2.90;;;;;;;12.17;47.96;99524.98;105284;1256;62061;-40
2024/01/22 01:43:54;;;;;;;3.40;2.90;;;;;;;12.17;47.96;99522.94;105441;1256;62476;-40
2024/01/22 01:46:20;;;;;;;3.30;3.00;;;;;;;12.17;47.90;99524.98;105575;1255;75210;-41
2024/01/22 01:48:47;;;;;;;3.20;2.90;;;;;;;12.17;47.93;99526.59;105638;1258;66277;-40
2024/01/22 01:51:15;;;;;;;3.90;3.20;;;;;;;12.17;47.86;99519.44;105663;1256;72431;-40
2024/01/22 01:53:42;;;;;;;4.10;3.10;;;;;;;12.17;47.85;99524.06;105695;1259;62040;-40
2024/01/22 01:56:09;;;;;;;3.50;3.00;;;;;;;12.17;47.89;99530.71;105446;1256;62037;-40
2024/01/22 01:58:36;;;;;;;4.30;3.30;;;;;;;12.16;47.99;99524.33;105340;1260;75186;-40
2024/01/22 02:01:02;;;;;;;3.30;3.00;;;;;;;12.17;47.91;99522.83;105560;1259;65966;-40
2024/01/22 02:03:29;;;;;;;4.90;3.00;;;;;;;12.16;48.03;99507.67;105625;1254;72594;-40
2024/01/22 02:05:56;;;;;;;4.30;3.30;;;;;;;12.16;47.91;99493.54;105605;1259;62956;-40
2024/01/22 02:08:23;;;;;;;3.60;3.10;;;;;;;12.16;47.87;99489.41;105551;1256;62070;-39
2024/01/22 02:10:49;;;;;;;3.70;3.30;;;;;;;12.16;48.01;99494.62;105376;1259;62025;-40
2024/01/22 02:13:16;;;;;;;3.70;3.10;;;;;;;12.16;47.92;99496.45;105429;1258;65969;-40
2024/01/22 02:15:43;;;;;;;3.20;2.80;;;;;;;12.16;47.92;99496.28;105423;1254;72880;-40
2024/01/22 02:18:10;;;;;;;3.50;3.00;;;;;;;12.16;47.92;99492.36;105274;1256;62082;-40
2024/01/22 02:20:37;;;;;;;3.40;2.90;;;;;;;12.16;47.84;99489.40;105383;1258;62072;-41
2024/01/22 02:23:04;;;;;;;3.80;3.20;;;;;;;12.16;47.93;99487.36;105467;1254;75251;-41
2024/01/22 02:25:31;;;;;;;3.40;3.00;;;;;;;12.16;47.93;99488.38;105272;1256;66003;-41
2024/01/22 02:27:58;;;;;;;3.40;3.00;;;;;;;12.16;47.91;99488.76;105407;1258;72517;-41
2024/01/22 02:30:24;;;;;;;3.80;3.10;;;;;;;12.16;47.84;99487.84;105418;1267;62050;-41
2024/01/22 02:32:52;;;;;;;3.50;3.10;;;;;;;12.16;47.91;99497.77;105536;1258;62569;-41
2024/01/22 02:35:20;;;;;;;3.30;3.00;;;;;;;12.16;47.95;99493.69;105367;1254;75374;-40
2024/01/22 02:37:47;;;;;;;2.90;2.60;;;;;;;12.16;47.90;99494.83;105527;1258;65400;-41
2024/01/22 02:40:14;;;;;;;4.70;3.00;;;;;;;12.16;47.98;99489.51;105437;1256;72646;-41
2024/01/22 02:42:40;;;;;;;3.30;2.90;;;;;;;12.16;48.03;99494.72;105600;1259;62397;-41
2024/01/22 02:45:08;;;;;;;3.40;2.90;;;;;;;12.15;47.89;99493.85;105612;1256;62138;-41
2024/01/22 02:47:35;;;;;;;4.00;3.00;;;;;;;12.16;47.91;99493.76;105580;1255;75838;-39
2024/01/22 02:50:02;;;;;;;3.80;3.00;;;;;;;12.16;47.83;99487.03;105623;1258;66043;-41
2024/01/22 02:52:29;;;;;;;3.80;3.30;;;;;;;12.15;47.91;99476.33;105613;1256;72480;-39
2024/01/22 02:54:55;;;;;;;4.40;2.90;;;;;;;12.15;47.75;99469.34;105531;1259;62056;-40
2024/01/22 02:57:22;;;;;;;3.30;3.00;;;;;;;12.15;47.81;99457.70;105512;1259;62138;-40
2024/01/22 02:59:48;;;;;;;3.40;3.10;;;;;;;12.15;47.94;99452.16;105335;1258;75226;-40
2024/01/22 03:02:15;;;;;;;3.60;3.00;;;;;;;12.15;47.86;99445.02;105659;1259;65900;-39
2024/01/22 03:04:42;;;;;;;3.60;3.20;;;;;;;12.15;47.86;99443.63;105284;1259;72609;-40
2024/01/22 03:07:09;;;;;;;3.50;2.90;;;;;;;12.15;47.99;99442.70;105628;1261;62046;-39
2024/01/22 03:09:36;;;;;;;3.10;2.80;;;;;;;12.15;47.86;99437.23;105354;1258;62080;-41
2024/01/22 03:12:03;;;;;;;3.50;3.00;;;;;;;12.14;47.85;99432.35;105500;1256;75435;-40
2024/01/22 03:14:30;;;;;;;2.90;2.60;;;;;;;12.14;47.99;99428.70;105589;1260;66020;-40
2024/01/22 03:16:56;;;;;;;3.40;2.90;;;;;;;12.14;47.98;99429.99;105617;1259;62041;-40
2024/01/22 03:19:23;;;;;;;3.10;2.80;;;;;;;12.14;47.89;99422.89;105617;1267;62054;-38
2024/01/22 03:21:49;;;;;;;4.60;3.40;;;;;;;12.13;47.89;99413.48;105727;1254;62049;-40
2024/01/22 03:24:16;;;;;;;4.00;3.00;;;;;;;12.14;47.82;99405.11;105467;1258;75335;-40
2024/01/22 03:26:43;;;;;;;3.30;2.90;;;;;;;12.14;48.02;99397.65;105446;1259;65547;-40
2024/01/22 03:29:10;;;;;;;3.70;3.10;;;;;;;12.14;48.00;99394.38;105457;1259;72672;-40
2024/01/22 03:31:37;;;;;;;3.50;2.80;;;;;;;12.14;47.80;99399.10;105321;1258;62028;-39
2024/01/22 03:34:04;;;;;;;3.00;2.70;;;;;;;12.14;47.84;99399.46;105624;1259;62053;-39
2024/01/22 03:36:31;;;;;;;3.40;2.90;;;;;;;12.13;47.99;99403.65;106095;1259;75952;-40
2024/01/22 03:38:58;;;;;;;3.00;2.70;;;;;;;12.14;47.93;99404.14;105340;1259;66216;-40
2024/01/22 03:41:24;;;;;;;3.50;3.00;;;;;;;12.13;47.90;99403.34;105440;1255;72420;-40
2024/01/22 03:43:51;;;;;;;4.10;3.20;;;;;;;12.13;47.83;99401.77;105705;1258;62102;-39
2024/01/22 03:46:18;;;;;;;3.80;3.00;;;;;;;12.13;47.93;99399.58;105674;1257;62144;-39
2024/01/22 03:48:45;;;;;;;3.00;2.60;;;;;;;12.14;48.02;99401.45;105389;1258;75218;-40
2024/01/22 03:51:11;;;;;;;3.60;3.30;;;;;;;12.13;47.92;99401.39;105258;1259;66097;-41
2024/01/22 03:53:38;;;;;;;3.50;2.70;;;;;;;12.13;48.05;99403.98;105355;1258;73155;-40
2024/01/22 03:56:06;;;;;;;2.80;2.60;;;;;;;12.12;47.94;99402.42;105312;1262;62009;-40
2024/01/22 03:58:33;;;;;;;3.40;2.80;;;;;;;12.12;47.86;99396.40;105349;1254;64585;-40
2024/01/22 04:01:01;;;;;;;3.30;2.90;;;;;;;12.12;47.98;99386.36;105576;1266;75426;-40
2024/01/22 04:03:28;;;;;;;3.40;2.90;;;;;;;12.12;47.86;99379.59;105671;1259;66110;-40
2024/01/22 04:05:54;;;;;;;3.60;2.90;;;;;;;12.11;47.93;99376.95;105522;1255;71585;-40
2024/01/22 04:08:21;;;;;;;3.70;3.00;;;;;;;12.11;48.01;99380.55;105364;1258;62039;-40
2024/01/22 04:10:48;;;;;;;3.60;3.00;;;;;;;12.12;48.01;99377.60;105497;1259;62147;-40
2024/01/22 04:13:14;;;;;;;3.20;2.90;;;;;;;12.12;48.03;99370.09;105664;1258;75206;-39
2024/01/22 04:15:41;;;;;;;3.70;3.10;;;;;;;12.11;47.96;99374.81;105641;1258;62106;-40
2024/01/22 04:18:08;;;;;;;3.50;2.80;;;;;;;12.11;47.93;99379.31;105655;1254;72506;-40
2024/01/22 04:20:34;;;;;;;3.40;3.00;;;;;;;12.11;47.87;99381.41;105644;1258;62060;-40
2024/01/22 04:23:01;;;;;;;4.50;3.30;;;;;;;12.11;48.05;99373.08;105457;1259;62062;-40
2024/01/22 04:25:28;;;;;;;3.60;2.90;;;;;;;12.11;48.00;99366.70;105371;1259;75410;-39
2024/01/22 04:27:56;;;;;;;3.00;2.70;;;;;;;12.11;47.84;99363.80;105446;1259;66405;-40
2024/01/22 04:30:23;;;;;;;3.70;3.20;;;;;;;12.11;47.96;99370.56;105342;1259;72917;-40
2024/01/22 04:32:50;;;;;;;3.20;2.90;;;;;;;12.11;47.99;99380.66;105401;1267;61923;-38
2024/01/22 04:35:17;;;;;;;3.40;3.00;;;;;;;12.11;47.98;99384.37;105395;1258;62170;-41
2024/01/22 04:37:43;;;;;;;5.00;3.00;;;;;;;12.10;47.89;99378.04;105394;1260;75397;-40
2024/01/22 04:40:14;;;;;;;3.10;2.80;;;;;;;12.10;47.98;99372.52;105358;1260;65744;-40
2024/01/22 04:42:41;;;;;;;3.90;3.30;;;;;;;12.10;48.05;99374.88;105396;1254;72525;-39
2024/01/22 04:45:08;;;;;;;3.00;2.50;;;;;;;12.10;48.08;99377.23;105420;1254;62745;-40
2024/01/22 04:47:35;;;;;;;3.10;2.80;;;;;;;12.10;48.03;99376.85;105693;1255;62417;-40
2024/01/22 04:50:02;;;;;;;3.30;3.00;;;;;;;12.09;48.06;99378.73;105380;1254;75305;-40
2024/01/22 04:52:29;;;;;;;3.20;2.80;;;;;;;12.10;47.95;99386.73;105437;1259;65107;-39
2024/01/22 04:54:56;;;;;;;3.20;2.70;;;;;;;12.09;48.01;99387.70;105337;1257;72586;-39
2024/01/22 04:57:38;;;;;;;3.20;2.90;;;;;;;12.10;48.09;99398.13;105480;1258;62050;-39
2024/01/22 05:00:06;;;;;;;4.00;3.00;;;;;;;12.09;47.93;99394.20;105623;1255;62040;-39
2024/01/22 05:02:33;;;;;;;3.20;2.90;;;;;;;12.09;48.00;99386.09;105650;1259;75382;-40
2024/01/22 05:05:00;;;;;;;3.40;3.00;;;;;;;12.09;48.07;99375.29;105422;1260;65699;-41
2024/01/22 05:07:27;;;;;;;4.00;3.30;;;;;;;12.09;48.02;99377.92;105440;1255;72443;-40
2024/01/22 05:09:58;;;;;;;5.00;2.90;;;;;;;12.08;48.03;99381.95;105634;1258;62056;-40
2024/01/22 05:12:24;;;;;;;3.50;2.90;;;;;;;12.09;48.00;99378.89;105507;1259;62067;-39
2024/01/22 05:14:52;;;;;;;3.30;3.00;;;;;;;12.08;48.09;99377.48;105674;1260;75401;-40
2024/01/22 05:17:19;;;;;;;3.00;2.70;;;;;;;12.08;48.01;99376.79;105563;1255;66036;-41
2024/01/22 05:19:45;;;;;;;3.90;3.00;;;;;;;12.09;48.01;99373.14;105347;1259;73116;-41
2024/01/22 05:22:12;;;;;;;3.40;3.00;;;;;;;12.08;47.97;99374.96;105541;1259;62101;-41
2024/01/22 05:24:39;;;;;;;3.40;2.90;;;;;;;12.07;47.95;99381.41;105413;1259;62166;-40
2024/01/22 05:27:07;;;;;;;4.00;3.30;;;;;;;12.08;48.08;99380.83;105542;1259;73893;-40
2024/01/22 05:29:34;;;;;;;3.00;2.70;;;;;;;12.08;48.00;99380.66;105501;1258;65638;-39
2024/01/22 05:32:02;;;;;;;3.70;3.10;;;;;;;12.08;48.07;99382.27;105568;1259;71429;-40
2024/01/22 05:34:29;;;;;;;4.10;3.20;;;;;;;12.07;47.86;99383.28;105442;1260;61968;-41
2024/01/22 05:36:55;;;;;;;3.40;3.10;;;;;;;12.07;48.00;99379.15;105434;1254;62284;-40
2024/01/22 05:39:22;;;;;;;3.40;2.90;;;;;;;12.07;48.00;99374.65;105340;1260;75854;-41
2024/01/22 05:41:49;;;;;;;3.60;2.80;;;;;;;12.07;48.05;99371.64;105560;1259;65084;-41
2024/01/22 05:44:16;;;;;;;4.10;3.10;;;;;;;12.07;47.98;99371.48;105610;1259;72605;-41
2024/01/22 05:46:42;;;;;;;3.60;3.00;;;;;;;12.07;48.03;99360.84;105940;1260;62078;-40
2024/01/22 05:49:10;;;;;;;3.30;2.70;;;;;;;12.06;47.95;99345.05;105435;1257;62064;-40
2024/01/22 05:51:36;;;;;;;4.00;3.30;;;;;;;12.07;47.96;99337.70;105283;1259;75213;-39
2024/01/22 05:54:03;;;;;;;3.50;3.10;;;;;;;12.07;48.09;99342.91;105280;1261;65249;-40
2024/01/22 05:56:30;;;;;;;3.60;2.90;;;;;;;12.07;48.00;99347.30;105275;1254;72691;-40
2024/01/22 05:58:56;;;;;;;3.30;2.90;;;;;;;12.06;47.89;99344.25;105251;1258;61962;-40
2024/01/22 06:01:24;;;;;;;3.30;2.90;;;;;;;12.06;48.06;99348.87;105333;1255;62087;-41
2024/01/22 06:03:51;;;;;;;2.80;2.50;;;;;;;12.06;48.06;99352.73;105457;1258;75238;-42
2024/01/22 06:06:18;;;;;;;4.10;3.10;;;;;;;12.06;47.86;99349.52;105471;1259;64762;-41
2024/01/22 06:08:46;;;;;;;3.00;2.70;;;;;;;12.05;47.93;99342.80;105362;1255;72975;-40
2024/01/22 06:11:14;;;;;;;4.10;3.00;;;;;;;12.06;47.99;99340.91;105404;1260;62497;-40
2024/01/22 06:13:41;;;;;;;3.40;3.00;;;;;;;12.05;48.02;99340.75;105508;1254;62153;-40
2024/01/22 06:16:26;;;;;;;3.40;2.90;;;;;;;12.06;48.13;99338.34;105389;1265;75388;-40
2024/01/22 06:18:53;;;;;;;3.40;2.90;;;;;;;12.06;47.91;99336.77;105466;1259;64044;-39
2024/01/22 06:21:20;;;;;;;3.20;2.90;;;;;;;12.05;48.10;99340.44;105480;1259;72282;-40
2024/01/22 06:23:46;;;;;;;3.40;2.80;;;;;;;12.06;47.96;99342.37;105450;1267;62073;-40
2024/01/22 06:26:13;;;;;;;3.40;3.10;;;;;;;12.07;48.00;99341.77;105582;1255;62409;-40
2024/01/22 06:28:40;;;;;;;5.10;3.30;;;;;;;12.07;48.09;99341.98;105498;1258;75281;-41
2024/01/22 06:31:06;;;;;;;3.30;2.90;;;;;;;12.07;48.01;99341.93;105420;1260;64895;-41
2024/01/22 06:33:33;;;;;;;4.10;3.30;;;;;;;12.06;47.98;99335.60;105457;1267;71729;-40
2024/01/22 06:36:00;;;;;;;3.70;2.90;;;;;;;12.07;48.03;99334.00;105350;1268;62060;-40
2024/01/22 06:38:26;;;;;;;4.10;2.80;;;;;;;12.07;47.99;99333.30;105587;1254;62110;-39
2024/01/22 06:40:54;;;;;;;4.20;3.00;;;;;;;12.08;48.00;99333.08;105491;1259;75427;-40
2024/01/22 06:43:21;;;;;;;3.20;2.70;;;;;;;12.08;48.07;99331.17;105565;1255;65128;-40
2024/01/22 06:45:47;;;;;;;3.30;3.00;;;;;;;12.08;47.92;99336.56;105348;1254;73684;-41
2024/01/22 06:48:15;;;;;;;3.60;3.30;;;;;;;12.09;47.96;99332.31;105394;1254;62048;-41
2024/01/22 06:50:42;;;;;;;3.50;3.00;;;;;;;12.09;47.90;99323.35;105405;1255;62110;-39
2024/01/22 06:53:08;;;;;;;4.00;3.00;;;;;;;12.10;47.94;99309.44;105378;1257;75283;-40
2024/01/22 06:55:38;;;;;;;3.60;3.10;;;;;;;12.09;47.90;99306.11;105466;1257;66883;-40
2024/01/22 06:58:05;;;;;;;3.30;3.00;;;;;;;12.10;47.91;99302.08;105481;1260;72580;-40
2024/01/22 07:01:04;;;;;;;3.60;3.00;;;;;;;12.10;48.08;99297.41;105583;1257;62057;-40
2024/01/22 07:03:31;;;;;;;5.70;3.40;;;;;;;12.10;48.04;99290.39;105417;1257;62147;-41
2024/01/22 07:05:58;;;;;;;4.70;3.50;;;;;;;12.10;48.17;99288.89;105368;1260;76490;-39
2024/01/22 07:08:24;;;;;;;4.20;3.40;;;;;;;12.10;48.34;99283.33;105334;1258;67066;-39
2024/01/22 07:10:51;;;;;;;4.20;3.50;;;;;;;12.12;48.27;99280.17;105480;1257;73421;-40
2024/01/22 07:18:22;;;;;;;4.20;3.30;;;;;;;12.15;48.41;99280.80;105595;1257;62143;-40
2024/01/22 07:21:24;;;;;;;5.40;3.60;;;;;;;12.16;48.37;99297.40;105420;1258;75299;-41
2024/01/22 07:23:51;;;;;;;6.70;3.60;;;;;;;12.16;48.39;99303.64;105667;1257;66352;-41
2024/01/22 07:26:17;;;;;;;5.50;3.50;;;;;;;12.17;48.50;99303.33;105624;1254;72957;-41
2024/01/22 07:28:44;;;;;;;5.20;3.50;;;;;;;12.17;48.57;99306.77;105527;1261;62086;-42
2024/01/22 07:31:31;;;;;;;4.70;3.80;;;;;;;12.17;48.44;99297.84;105569;1254;62037;-41
2024/01/22 07:33:57;;;;;;;5.10;4.00;;;;;;;12.16;48.42;99286.17;105246;1254;74751;-43
2024/01/22 07:36:24;;;;;;;6.30;3.80;;;;;;;12.16;48.41;99279.95;105326;1260;66039;-42
2024/01/22 07:38:54;;;;;;;6.00;4.10;;;;;;;12.18;48.64;99276.63;105606;1254;72856;-43
2024/01/22 07:41:21;;;;;;;8.70;4.80;;;;;;;12.20;48.73;99276.79;105584;1257;62152;-42
2024/01/22 07:43:48;;;;;;;8.70;4.60;;;;;;;12.25;49.47;99282.80;106126;1254;62070;-42
2024/01/22 07:46:14;;;;;;;5.90;4.60;;;;;;;12.32;49.64;99288.11;105378;1254;75415;-40
2024/01/22 07:48:41;;;;;;;8.90;4.50;;;;;;;12.38;49.51;99286.92;105624;1254;65554;-38
2024/01/22 07:51:08;;;;;;;6.20;4.40;;;;;;;12.44;49.82;99289.23;105481;1254;72954;-40
2024/01/22 07:53:35;;;;;;;6.10;4.90;;;;;;;12.48;49.56;99290.56;105526;1257;62053;-38
2024/01/22 07:56:02;;;;;;;6.20;4.60;;;;;;;12.50;49.44;99292.70;105317;1257;62092;-39
2024/01/22 07:58:29;;;;;;;7.10;4.50;;;;;;;12.53;49.55;99292.81;105499;1257;75975;-40
2024/01/22 08:00:55;;;;;;;7.10;5.00;;;;;;;12.55;49.62;99291.48;105358;1254;65095;-40
2024/01/22 08:03:22;;;;;;;5.40;4.70;;;;;;;12.56;49.81;99291.46;105505;1254;72644;-38
2024/01/22 08:05:49;;;;;;;6.50;4.60;;;;;;;12.58;49.43;99292.27;106557;1257;62188;-41
2024/01/22 08:08:16;;;;;;;12.20;4.90;;;;;;;12.59;49.21;99298.44;105575;1258;62148;-39
2024/01/22 08:10:43;;;;;;;5.00;4.50;;;;;;;12.60;49.18;99299.69;105526;1257;75542;-39
2024/01/22 08:13:11;;;;;;;6.40;4.30;;;;;;;12.60;49.25;99298.40;105376;1257;65027;-39
2024/01/22 08:15:37;;;;;;;6.50;4.80;;;;;;;12.60;49.25;99301.45;105773;1253;71088;-39
2024/01/22 08:18:04;;;;;;;5.90;5.10;;;;;;;12.60;49.27;99302.85;105651;1257;62047;-39
2024/01/22 08:20:31;;;;;;;7.30;4.50;;;;;;;12.60;49.29;99302.96;105844;1254;62050;-39
2024/01/22 08:22:59;;;;;;;6.40;4.90;;;;;;;12.60;49.27;99302.38;105800;1253;75469;-40
2024/01/22 08:25:29;;;;;;;8.40;4.40;;;;;;;12.61;49.17;99296.40;105500;1257;66293;-39
2024/01/22 08:27:56;;;;;;;5.50;4.40;;;;;;;12.61;49.22;99296.25;105455;1259;71580;-38
2024/01/22 08:30:22;;;;;;;7.50;5.10;;;;;;;12.61;49.10;99290.00;105477;1254;64354;-39
2024/01/22 08:32:49;;;;;;;5.80;4.30;;;;;;;12.61;49.03;99282.05;105427;1254;62132;-37
2024/01/22 08:35:17;;;;;;;6.30;4.30;;;;;;;12.62;49.05;99282.05;105349;1255;76539;-39
2024/01/22 08:37:50;;;;;;;6.20;4.60;;;;;;;12.62;49.08;99272.70;105597;1257;66556;-39
2024/01/22 08:40:21;;;;;;;5.60;4.40;;;;;;;12.63;49.07;99270.27;105364;1253;72618;-38
2024/01/22 08:42:55;;;;;;;5.30;4.50;;;;;;;12.63;48.99;99265.74;105560;1257;62057;-37
2024/01/22 08:45:22;;;;;;;4.60;4.10;;;;;;;12.64;48.95;99260.91;105557;1253;62159;-39
2024/01/22 08:47:49;;;;;;;8.50;4.70;;;;;;;12.64;48.85;99258.92;105545;1257;75221;-37
2024/01/22 08:50:21;;;;;;;9.20;4.70;;;;;;;12.64;48.91;99260.05;105495;1257;65654;-39
2024/01/22 08:52:49;;;;;;;13.10;5.00;;;;;;;12.65;48.93;99255.95;105476;1256;73048;-39
2024/01/22 08:55:16;;;;;;;8.10;4.40;;;;;;;12.66;48.81;99251.82;105481;1258;62008;-43
2024/01/22 08:57:43;;;;;;;7.50;4.60;;;;;;;12.67;48.90;99244.79;105386;1254;62074;-41
2024/01/22 09:00:14;;;;;;;11.40;4.80;;;;;;;12.69;49.04;99240.30;105350;1258;75350;-44
2024/01/22 09:02:42;;;;;;;6.20;4.70;;;;;;;12.72;49.03;99243.21;105546;1257;66231;-47
2024/01/22 09:05:09;;;;;;;7.40;4.70;;;;;;;12.75;49.42;99244.91;105429;1254;73665;-43
2024/01/22 09:07:36;;;;;;;6.90;4.80;;;;;;;12.77;49.54;99243.02;105496;1257;62049;-41
2024/01/22 09:10:08;;;;;;;6.50;4.40;;;;;;;12.80;49.51;99238.44;105528;1256;62157;-44
2024/01/22 09:12:34;;;;;;;6.70;4.60;;;;;;;12.82;49.66;99228.00;105610;1254;75384;-37
2024/01/22 09:15:06;;;;;;;5.80;4.40;;;;;;;12.84;49.71;99225.41;105133;1260;65975;-42
2024/01/22 09:17:33;;;;;;;5.20;4.00;;;;;;;12.86;49.94;99225.30;106316;1257;73680;-41
2024/01/22 09:20:00;;;;;;;7.80;4.40;;;;;;;12.88;50.08;99226.53;105448;1260;62057;-39
2024/01/22 09:22:26;;;;;;;9.10;4.30;;;;;;;12.91;50.15;99227.06;105592;1254;62152;-40
2024/01/22 09:24:53;;;;;;;11.80;4.90;;;;;;;12.94;50.22;99227.53;105810;1254;76182;-52
2024/01/22 09:27:20;;;;;;;9.90;5.10;;;;;;;12.96;50.27;99222.58;105596;1257;65631;-50
2024/01/22 09:29:46;;;;;;;6.90;4.90;;;;;;;13.00;50.20;99222.06;105521;1254;72632;-43
2024/01/22 09:32:15;;;;;;;8.90;4.40;;;;;;;13.03;50.22;99216.08;105629;1257;62033;-48
2024/01/22 09:34:44;;;;;;;5.40;4.80;;;;;;;13.08;50.30;99207.16;105309;1259;62160;-46
2024/01/22 09:37:11;;;;;;;7.10;4.30;;;;;;;13.11;50.30;99201.77;105387;1254;74985;-48
2024/01/22 09:39:38;;;;;;;10.20;5.10;;;;;;;13.14;50.04;99194.98;109323;1253;66968;-48
2024/01/22 09:42:06;;;;;;;6.90;4.40;;;;;;;13.16;49.86;99194.52;106591;1254;72315;-49
2024/01/22 09:44:33;;;;;;;7.10;4.60;;;;;;;13.19;49.79;99192.78;105751;1254;62061;-48
2024/01/22 09:47:02;;;;;;;9.00;4.70;;;;;;;13.21;49.72;99184.77;105536;1254;62063;-51
2024/01/22 09:49:29;;;;;;;7.80;4.90;;;;;;;13.22;49.51;99190.89;105608;1257;76226;-51
2024/01/22 09:51:56;;;;;;;7.30;5.30;;;;;;;13.25;49.19;99189.63;105657;1256;67245;-47
2024/01/22 09:54:23;;;;;;;7.50;4.80;;;;;;;13.28;49.03;99182.78;105642;1253;73174;-51
2024/01/22 09:56:53;;;;;;;7.50;5.00;;;;;;;13.31;49.07;99174.15;105513;1254;62085;-51
2024/01/22 09:59:25;;;;;;;12.40;5.10;;;;;;;13.33;49.17;99164.29;105702;1254;62185;-49
2024/01/22 10:01:53;;;;;;;9.10;4.70;;;;;;;13.34;49.12;99161.59;105466;1254;75453;-50
2024/01/22 10:04:20;;;;;;;6.50;4.80;;;;;;;13.34;49.19;99155.45;105458;1254;67114;-50
2024/01/22 10:06:50;;;;;;;9.00;4.50;;;;;;;13.34;49.05;99149.23;105873;1253;73506;-50
2024/01/22 10:09:17;;;;;;;7.50;4.90;;;;;;;13.34;48.92;99146.73;105520;1253;61998;-49
2024/01/22 10:11:45;;;;;;;6.40;4.50;;;;;;;13.34;48.91;99140.49;105951;1254;62155;-50
2024/01/22 10:14:12;;;;;;;7.20;4.50;;;;;;;13.34;48.75;99138.98;105611;1257;76666;-49
2024/01/22 10:16:39;;;;;;;8.70;4.70;;;;;;;13.34;48.77;99132.31;105441;1253;67236;-49
2024/01/22 10:19:10;;;;;;;7.10;4.80;;;;;;;13.33;48.69;99127.85;105490;1253;73668;-50
2024/01/22 10:21:38;;;;;;;6.90;4.80;;;;;;;13.34;48.65;99124.77;105491;1256;62176;-49
2024/01/22 10:24:07;;;;;;;6.20;4.60;;;;;;;13.33;48.61;99119.39;105595;1253;61984;-53
2024/01/22 10:27:49;;;;;;;6.10;4.00;;;;;;;13.34;48.48;99114.02;105785;1254;74953;-52
2024/01/22 10:30:17;;;;;;;7.50;4.50;;;;;;;13.33;48.47;99102.45;105574;1256;65636;-52
2024/01/22 10:32:44;;;;;;;7.00;4.80;;;;;;;13.32;48.50;99094.66;105519;1254;73491;-51
2024/01/22 10:35:22;;;;;;;5.30;4.70;;;;;;;13.32;48.53;99090.80;105456;1257;62051;-51
2024/01/22 10:38:21;;;;;;;9.30;4.70;;;;;;;13.32;48.43;99082.02;105468;1257;62041;-52
2024/01/22 10:41:22;;;;;;;4.90;4.20;;;;;;;13.32;48.39;99074.70;105640;1259;76132;-54
2024/01/22 10:45:08;;;;;;;5.80;4.30;;;;;;;13.30;48.36;99068.85;105553;1257;66265;-51
2024/01/22 10:47:35;;;;;;;5.30;4.30;;;;;;;13.30;48.57;99069.40;105543;1254;72428;-51
2024/01/22 10:50:03;;;;;;;6.90;4.70;;;;;;;13.30;48.60;99060.72;105418;1258;62057;-52
2024/01/22 10:52:30;;;;;;;5.80;4.40;;;;;;;13.30;48.76;99048.93;105731;1253;62002;-50
2024/01/22 10:54:57;;;;;;;5.50;4.70;;;;;;;13.32;48.76;99044.08;105431;1254;76473;-51
2024/01/22 10:57:33;;;;;;;8.80;5.20;;;;;;;13.31;48.82;99045.58;105413;1253;68453;-50
2024/01/22 11:00:32;;;;;;;6.30;4.60;;;;;;;13.32;48.83;99045.16;106228;1253;73676;-54
2024/01/22 11:03:00;;;;;;;6.00;4.40;;;;;;;13.32;48.87;99041.60;105593;1254;62127;-49
2024/01/22 11:05:27;;;;;;;7.30;4.70;;;;;;;13.31;48.75;99035.14;105500;1253;62045;-56
2024/01/22 11:12:04;;;;;;;9.10;4.40;;;;;;;13.30;48.82;99030.96;105355;1258;66388;-51
2024/01/22 11:14:32;;;;;;;10.20;4.90;;;;;;;13.29;48.77;99031.63;105505;1256;72676;-53
2024/01/22 11:16:58;;;;;;;7.80;4.60;;;;;;;13.28;48.73;99026.95;105377;1256;62138;-53
2024/01/22 11:19:26;;;;;;;5.30;4.60;;;;;;;13.29;48.84;99020.69;105753;1253;62154;-53
2024/01/22 11:21:53;;;;;;;6.70;4.40;;;;;;;13.29;48.77;99011.88;105848;1254;76483;-53
2024/01/22 11:24:23;;;;;;;6.20;4.60;;;;;;;13.30;48.75;99006.80;105615;1257;66382;-53
2024/01/22 11:26:51;;;;;;;6.50;5.10;;;;;;;13.31;48.76;99003.45;105978;1254;73534;-53
2024/01/22 11:29:22;;;;;;;6.20;5.00;;;;;;;13.31;48.73;99001.25;105678;1254;61954;-52
2024/01/22 11:31:49;;;;;;;6.80;5.10;;;;;;;13.32;48.64;99002.31;105796;1254;62136;-54
2024/01/22 11:34:39;;;;;;;6.40;4.30;;;;;;;13.32;48.64;98995.38;105529;1259;76342;-55
2024/01/22 11:37:11;;;;;;;6.00;5.00;;;;;;;13.32;48.50;98982.95;105634;1257;67276;-54
2024/01/22 11:39:46;;;;;;;6.30;4.70;;;;;;;13.32;48.58;98975.15;105691;1254;73461;-55